createdAt,value
2018-05-08T00:00:58.064Z,15.56
2018-05-08T00:03:23.848Z,15.58
2018-05-08T00:05:49.654Z,15.53
2018-05-08T00:08:15.477Z,15.44
2018-05-08T00:10:41.256Z,15.53
2018-05-08T00:13:07.061Z,15.52
2018-05-08T00:15:32.864Z,15.58
2018-05-08T00:17:58.647Z,15.41
2018-05-08T00:20:24.461Z,15.35
2018-05-08T00:22:50.242Z,15.19
2018-05-08T00:25:16.026Z,15.15
2018-05-08T00:27:41.843Z,15.21
2018-05-08T00:30:07.632Z,15.35
2018-05-08T00:32:33.404Z,15.28
2018-05-08T00:34:59.207Z,15.19
2018-05-08T00:37:24.986Z,15.20
2018-05-08T00:39:50.805Z,15.18
2018-05-08T00:42:16.578Z,15.29
2018-05-08T00:44:42.363Z,15.17
2018-05-08T00:47:08.161Z,15.09
2018-05-08T00:49:33.968Z,14.99
2018-05-08T00:51:59.752Z,15.24
2018-05-08T00:54:38.346Z,15.10
2018-05-08T00:57:04.128Z,15.29
2018-05-08T00:59:29.928Z,15.19
2018-05-08T01:01:55.728Z,15.10
2018-05-08T01:04:22.069Z,15.16
2018-05-08T01:06:48.521Z,15.01
2018-05-08T01:09:14.867Z,15.11
2018-05-08T01:11:40.679Z,15.19
2018-05-08T01:14:06.450Z,14.98
2018-05-08T01:16:32.276Z,15.11
2018-05-08T01:18:58.078Z,15.18
2018-05-08T01:21:23.863Z,15.07
2018-05-08T01:23:49.675Z,15.08
2018-05-08T01:26:15.492Z,14.96
2018-05-08T01:28:41.368Z,14.84
2018-05-08T01:31:07.162Z,14.86
2018-05-08T01:33:32.949Z,14.84
2018-05-08T01:35:58.746Z,14.82
2018-05-08T01:38:24.918Z,14.81
2018-05-08T01:40:50.773Z,14.90
2018-05-08T01:43:16.599Z,14.88
2018-05-08T01:45:42.343Z,14.82
2018-05-08T01:48:08.157Z,14.77
2018-05-08T01:50:33.972Z,14.89
2018-05-08T01:52:59.755Z,15.03
2018-05-08T01:55:25.576Z,15.05
2018-05-08T01:57:51.382Z,15.06
2018-05-08T02:00:17.181Z,14.93
2018-05-08T02:02:42.970Z,15.00
2018-05-08T02:05:08.782Z,14.82
2018-05-08T02:10:00.280Z,14.91
2018-05-08T02:12:26.082Z,14.75
2018-05-08T02:14:51.875Z,14.52
2018-05-08T02:17:17.665Z,14.60
2018-05-08T02:19:43.734Z,14.52
2018-05-08T02:22:09.525Z,14.62
2018-05-08T02:24:35.306Z,14.68
2018-05-08T02:27:01.110Z,14.67
2018-05-08T02:29:27.235Z,14.62
2018-05-08T02:31:53.020Z,14.68
2018-05-08T02:34:18.824Z,14.64
2018-05-08T02:36:44.604Z,14.59
2018-05-08T02:39:10.404Z,14.64
2018-05-08T02:41:36.186Z,14.69
2018-05-08T02:44:02.135Z,14.64
2018-05-08T02:46:27.863Z,14.78
2018-05-08T02:48:53.862Z,14.68
2018-05-08T02:51:19.678Z,14.71
2018-05-08T02:53:45.470Z,14.62
2018-05-08T02:58:49.237Z,14.57
2018-05-08T03:01:15.051Z,14.63
2018-05-08T03:03:40.844Z,14.73
2018-05-08T03:06:06.638Z,14.66
2018-05-08T03:08:32.450Z,14.56
2018-05-08T03:10:58.256Z,14.62
2018-05-08T03:13:24.073Z,14.62
2018-05-08T03:15:49.849Z,14.50
2018-05-08T03:18:15.644Z,14.39
2018-05-08T03:20:41.453Z,14.26
2018-05-08T03:23:07.246Z,14.23
2018-05-08T03:25:33.038Z,14.34
2018-05-08T03:27:58.842Z,14.33
2018-05-08T03:30:24.652Z,14.26
2018-05-08T03:32:50.438Z,14.23
2018-05-08T03:35:16.220Z,14.08
2018-05-08T03:37:42.029Z,14.29
2018-05-08T03:40:07.806Z,14.02
2018-05-08T03:42:33.629Z,13.95
2018-05-08T03:45:02.413Z,14.13
2018-05-08T03:47:28.202Z,13.72
2018-05-08T03:49:54.006Z,13.59
2018-05-08T03:52:19.810Z,13.76
2018-05-08T03:54:45.596Z,13.71
2018-05-08T03:57:11.405Z,13.53
2018-05-08T03:59:37.196Z,13.51
2018-05-08T04:02:15.649Z,13.50
2018-05-08T04:04:53.951Z,13.53
2018-05-08T04:07:32.074Z,13.61
2018-05-08T04:09:57.874Z,13.55
2018-05-08T04:12:23.669Z,13.66
2018-05-08T04:14:49.464Z,13.56
2018-05-08T04:17:15.270Z,13.78
2018-05-08T04:19:41.082Z,13.88
2018-05-08T04:22:06.874Z,13.79
2018-05-08T04:24:32.694Z,13.85
2018-05-08T04:26:58.479Z,13.89
2018-05-08T04:29:24.266Z,13.84
2018-05-08T04:31:50.516Z,13.87
2018-05-08T04:34:16.302Z,13.88
2018-05-08T04:36:42.171Z,13.94
2018-05-08T04:39:07.900Z,13.95
2018-05-08T04:41:33.684Z,14.01
2018-05-08T04:43:59.471Z,14.11
2018-05-08T04:46:25.275Z,14.13
2018-05-08T04:48:51.077Z,14.31
2018-05-08T04:51:16.854Z,14.28
2018-05-08T04:53:42.675Z,14.28
2018-05-08T04:56:08.453Z,14.37
2018-05-08T04:58:34.243Z,14.39
2018-05-08T05:01:00.382Z,14.51
2018-05-08T05:03:26.185Z,14.70
2018-05-08T05:05:52.003Z,14.65
2018-05-08T05:08:17.821Z,14.66
2018-05-08T05:10:43.604Z,14.57
2018-05-08T05:13:09.444Z,14.76
2018-05-08T05:15:35.213Z,14.74
2018-05-08T05:18:01.028Z,14.89
2018-05-08T05:20:26.833Z,14.92
2018-05-08T05:22:52.945Z,14.99
2018-05-08T05:25:18.738Z,15.02
2018-05-08T05:27:44.517Z,15.03
2018-05-08T05:30:10.344Z,15.07
2018-05-08T05:32:36.144Z,15.21
2018-05-08T05:35:01.959Z,15.22
2018-05-08T05:37:27.774Z,15.27
2018-05-08T05:39:54.565Z,15.39
2018-05-08T05:42:20.362Z,15.48
2018-05-08T05:44:46.163Z,15.51
2018-05-08T05:47:11.960Z,15.56
2018-05-08T05:49:37.762Z,15.73
2018-05-08T05:52:03.569Z,15.81
2018-05-08T05:54:29.410Z,15.83
2018-05-08T05:56:55.229Z,15.97
2018-05-08T05:59:21.129Z,16.16
2018-05-08T06:01:46.986Z,16.15
2018-05-08T06:04:12.838Z,16.14
2018-05-08T06:06:38.769Z,16.26
2018-05-08T06:09:04.589Z,16.30
2018-05-08T06:11:30.402Z,16.36
2018-05-08T06:13:56.206Z,16.44
2018-05-08T06:16:21.991Z,16.52
2018-05-08T06:18:47.797Z,16.64
2018-05-08T06:21:13.585Z,16.67
2018-05-08T06:23:39.365Z,16.82
2018-05-08T06:26:05.299Z,16.94
2018-05-08T06:28:31.154Z,16.96
2018-05-08T06:30:56.907Z,17.07
2018-05-08T06:33:22.726Z,17.10
2018-05-08T06:35:48.534Z,17.16
2018-05-08T06:38:14.326Z,17.27
2018-05-08T06:40:40.148Z,17.41
2018-05-08T06:43:06.025Z,17.51
2018-05-08T06:45:31.818Z,17.55
2018-05-08T06:47:57.849Z,17.67
2018-05-08T06:50:23.642Z,17.72
2018-05-08T06:52:49.466Z,17.83
2018-05-08T06:55:15.253Z,17.96
2018-05-08T06:57:41.053Z,18.05
2018-05-08T07:00:06.852Z,18.14
2018-05-08T07:02:32.653Z,18.20
2018-05-08T07:04:58.445Z,18.28
2018-05-08T07:07:24.229Z,18.44
2018-05-08T07:09:50.027Z,18.55
2018-05-08T07:12:15.846Z,18.62
2018-05-08T07:14:41.651Z,18.75
2018-05-08T07:17:07.460Z,18.80
2018-05-08T07:19:33.249Z,18.84
2018-05-08T07:21:59.053Z,18.92
2018-05-08T07:24:24.886Z,19.09
2018-05-08T07:26:50.687Z,19.10
2018-05-08T07:29:16.483Z,19.21
2018-05-08T07:31:42.322Z,19.25
2018-05-08T07:34:08.136Z,19.33
2018-05-08T07:36:33.922Z,19.55
2018-05-08T07:38:59.730Z,19.78
2018-05-08T07:41:25.538Z,19.73
2018-05-08T07:43:51.358Z,19.74
2018-05-08T07:46:17.149Z,19.76
2018-05-08T07:48:42.964Z,19.93
2018-05-08T07:51:09.094Z,20.05
2018-05-08T07:53:34.893Z,20.17
2018-05-08T07:56:00.685Z,20.13
2018-05-08T07:58:26.511Z,20.27
2018-05-08T08:00:52.309Z,20.49
2018-05-08T08:03:18.135Z,20.50
2018-05-08T08:05:43.938Z,20.57
2018-05-08T08:08:09.758Z,20.65
2018-05-08T08:10:35.557Z,20.70
2018-05-08T08:13:03.406Z,20.80
2018-05-08T08:15:29.257Z,20.94
2018-05-08T08:17:55.080Z,20.98
2018-05-08T08:20:20.855Z,21.15
2018-05-08T08:22:46.637Z,21.29
2018-05-08T08:25:12.442Z,21.42
2018-05-08T08:27:38.237Z,21.43
2018-05-08T08:30:04.075Z,21.46
2018-05-08T08:32:29.932Z,21.56
2018-05-08T08:34:55.784Z,21.69
2018-05-08T08:37:21.616Z,21.82
2018-05-08T08:39:47.456Z,21.90
2018-05-08T08:42:13.321Z,22.05
2018-05-08T08:44:39.172Z,22.14
2018-05-08T08:47:05.012Z,22.25
2018-05-08T08:49:31.015Z,22.25
2018-05-08T08:51:56.837Z,22.39
2018-05-08T08:54:22.639Z,22.33
2018-05-08T08:56:48.456Z,22.46
2018-05-08T08:59:14.234Z,22.59
2018-05-08T09:01:40.001Z,22.74
2018-05-08T09:04:05.873Z,22.91
2018-05-08T09:06:31.621Z,22.91
2018-05-08T09:08:57.399Z,22.95
2018-05-08T09:11:23.198Z,22.96
2018-05-08T09:13:49.035Z,22.84
2018-05-08T09:16:14.817Z,23.05
2018-05-08T09:18:40.633Z,23.04
2018-05-08T09:21:06.411Z,23.01
2018-05-08T09:23:32.192Z,23.02
2018-05-08T09:25:58.218Z,22.91
2018-05-08T09:28:23.986Z,23.06
2018-05-08T09:30:49.776Z,23.10
2018-05-08T09:33:15.557Z,23.20
2018-05-08T09:35:41.334Z,23.29
2018-05-08T09:38:07.112Z,23.45
2018-05-08T09:40:32.930Z,23.39
2018-05-08T09:42:58.774Z,23.59
2018-05-08T09:45:24.565Z,23.63
2018-05-08T09:47:50.333Z,23.63
2018-05-08T09:50:16.108Z,23.64
2018-05-08T09:52:41.904Z,23.88
2018-05-08T09:55:07.735Z,24.08
2018-05-08T09:57:33.519Z,24.06
2018-05-08T09:59:59.318Z,24.04
2018-05-08T10:02:25.117Z,24.06
2018-05-08T10:04:50.890Z,24.11
2018-05-08T10:07:16.685Z,24.08
2018-05-08T10:09:42.463Z,24.04
2018-05-08T10:12:08.253Z,24.08
2018-05-08T10:14:34.326Z,24.04
2018-05-08T10:17:00.098Z,24.24
2018-05-08T10:19:25.863Z,24.17
2018-05-08T10:21:51.661Z,24.14
2018-05-08T10:24:17.460Z,24.09
2018-05-08T10:26:43.303Z,24.26
2018-05-08T10:29:09.059Z,24.38
2018-05-08T10:31:34.826Z,24.37
2018-05-08T10:34:00.618Z,24.38
2018-05-08T10:36:26.394Z,24.22
2018-05-08T10:38:52.169Z,24.37
2018-05-08T10:41:17.967Z,24.52
2018-05-08T10:43:43.756Z,24.72
2018-05-08T10:46:09.550Z,24.61
2018-05-08T10:48:35.473Z,24.80
2018-05-08T10:51:01.246Z,24.95
2018-05-08T10:53:27.022Z,24.92
2018-05-08T10:55:52.807Z,24.97
2018-05-08T10:58:18.627Z,24.94
2018-05-08T11:00:44.698Z,24.94
2018-05-08T11:03:10.495Z,25.18
2018-05-08T11:05:36.307Z,25.02
2018-05-08T11:08:02.123Z,24.92
2018-05-08T11:10:27.907Z,24.99
2018-05-08T11:12:53.698Z,25.05
2018-05-08T11:15:19.484Z,25.22
2018-05-08T11:17:45.264Z,25.52
2018-05-08T11:20:11.060Z,25.26
2018-05-08T11:22:36.850Z,25.15
2018-05-08T11:25:02.671Z,25.45
2018-05-08T11:27:28.445Z,25.40
2018-05-08T11:29:54.227Z,25.41
2018-05-08T11:32:20.005Z,25.49
2018-05-08T11:34:46.835Z,25.52
2018-05-08T11:37:12.623Z,25.43
2018-05-08T11:39:38.418Z,25.35
2018-05-08T11:42:04.234Z,25.24
2018-05-08T11:44:30.040Z,25.21
2018-05-08T11:46:55.834Z,25.40
2018-05-08T11:49:21.646Z,25.47
2018-05-08T11:51:47.481Z,25.39
2018-05-08T11:54:13.274Z,25.60
2018-05-08T11:56:39.069Z,25.57
2018-05-08T11:59:04.873Z,25.58
2018-05-08T12:01:30.670Z,25.51
2018-05-08T12:03:56.665Z,25.61
2018-05-08T12:06:22.462Z,25.65
2018-05-08T12:08:48.258Z,25.90
2018-05-08T12:11:14.050Z,26.32
2018-05-08T12:13:39.861Z,25.80
2018-05-08T12:16:05.646Z,26.03
2018-05-08T12:18:31.432Z,26.39
2018-05-08T12:20:57.241Z,26.77
2018-05-08T12:23:23.039Z,26.83
2018-05-08T12:25:48.941Z,26.96
2018-05-08T12:28:14.747Z,26.54
2018-05-08T12:30:40.618Z,26.46
2018-05-08T12:33:06.357Z,27.08
2018-05-08T12:35:32.165Z,27.00
2018-05-08T12:37:57.971Z,26.95
2018-05-08T12:40:23.778Z,27.15
2018-05-08T12:42:49.580Z,27.35
2018-05-08T12:45:15.398Z,27.60
2018-05-08T12:47:41.231Z,27.42
2018-05-08T12:50:07.044Z,27.66
2018-05-08T12:52:32.847Z,27.80
2018-05-08T12:54:58.688Z,27.83
2018-05-08T12:57:24.542Z,28.28
2018-05-08T12:59:50.339Z,28.34
2018-05-08T13:02:16.155Z,27.87
2018-05-08T13:04:41.981Z,28.30
2018-05-08T13:07:07.775Z,27.94
2018-05-08T13:09:33.565Z,27.84
2018-05-08T13:11:59.377Z,28.32
2018-05-08T13:14:25.154Z,28.46
2018-05-08T13:16:50.941Z,28.65
2018-05-08T13:19:16.734Z,28.22
2018-05-08T13:21:42.536Z,28.21
2018-05-08T13:24:08.359Z,28.53
2018-05-08T13:26:34.134Z,28.63
2018-05-08T13:28:59.935Z,27.90
2018-05-08T13:31:25.717Z,27.99
2018-05-08T13:33:51.517Z,28.67
2018-05-08T13:36:17.350Z,28.98
2018-05-08T13:38:43.173Z,29.23
2018-05-08T13:41:09.028Z,29.11
2018-05-08T13:43:34.839Z,29.02
2018-05-08T13:46:00.629Z,29.85
2018-05-08T13:48:26.745Z,29.37
2018-05-08T13:50:52.521Z,29.49
2018-05-08T13:53:18.397Z,29.30
2018-05-08T13:55:44.510Z,29.30
2018-05-08T13:58:10.290Z,29.09
2018-05-08T14:00:36.085Z,29.30
2018-05-08T14:03:01.899Z,28.39
2018-05-08T14:05:27.705Z,28.69
2018-05-08T14:07:53.487Z,28.86
2018-05-08T14:10:19.293Z,28.63
2018-05-08T14:12:45.082Z,29.07
2018-05-08T14:15:10.879Z,29.53
2018-05-08T14:17:36.770Z,29.11
2018-05-08T14:20:02.679Z,28.31
2018-05-08T14:22:28.491Z,29.15
2018-05-08T14:24:54.856Z,29.74
2018-05-08T14:27:20.648Z,29.06
2018-05-08T14:29:46.469Z,28.44
2018-05-08T14:32:12.268Z,28.70
2018-05-08T14:34:38.060Z,28.42
2018-05-08T14:37:03.895Z,28.09
2018-05-08T14:39:29.637Z,28.05
2018-05-08T14:41:55.471Z,27.48
2018-05-08T14:44:21.284Z,27.61
2018-05-08T14:46:47.070Z,27.58
2018-05-08T14:49:12.883Z,27.41
2018-05-08T14:51:38.674Z,27.61
2018-05-08T14:54:04.532Z,27.73
2018-05-08T14:56:30.317Z,27.74
2018-05-08T14:58:56.244Z,27.83
2018-05-08T15:01:21.943Z,28.06
2018-05-08T15:03:47.726Z,27.57
2018-05-08T15:06:13.559Z,27.38
2018-05-08T15:08:39.392Z,27.11
2018-05-08T15:11:05.233Z,27.09
2018-05-08T15:13:31.108Z,27.04
2018-05-08T15:15:56.826Z,26.83
2018-05-08T15:18:22.621Z,26.88
2018-05-08T15:20:48.409Z,26.66
2018-05-08T15:23:14.223Z,26.60
2018-05-08T15:25:40.024Z,26.86
2018-05-08T15:28:05.817Z,26.67
2018-05-08T15:30:31.627Z,26.60
2018-05-08T15:32:57.429Z,26.48
2018-05-08T15:35:23.225Z,26.46
2018-05-08T15:37:49.028Z,26.52
2018-05-08T15:40:14.801Z,26.44
2018-05-08T15:42:40.618Z,26.40
2018-05-08T15:45:06.397Z,26.42
2018-05-08T15:47:32.190Z,26.31
2018-05-08T15:49:58.176Z,26.33
2018-05-08T15:52:23.975Z,26.26
2018-05-08T15:54:49.765Z,26.17
2018-05-08T15:57:15.561Z,26.26
2018-05-08T15:59:41.350Z,26.23
2018-05-08T16:02:07.215Z,26.17
2018-05-08T16:04:33.898Z,26.11
2018-05-08T16:06:59.701Z,26.03
2018-05-08T16:09:25.506Z,25.95
2018-05-08T16:11:51.293Z,25.93
2018-05-08T16:14:17.090Z,25.85
2018-05-08T16:16:43.053Z,25.87
2018-05-08T16:19:08.868Z,25.71
2018-05-08T16:21:34.671Z,25.79
2018-05-08T16:24:00.465Z,25.81
2018-05-08T16:26:26.257Z,25.75
2018-05-08T16:28:52.045Z,25.69
2018-05-08T16:31:17.838Z,25.59
2018-05-08T16:33:43.629Z,25.63
2018-05-08T16:36:09.447Z,25.62
2018-05-08T16:38:35.250Z,25.56
2018-05-08T16:41:01.043Z,25.47
2018-05-08T16:43:26.897Z,25.55
2018-05-08T16:45:52.698Z,25.53
2018-05-08T16:48:18.532Z,25.58
2018-05-08T16:50:44.321Z,25.46
2018-05-08T16:53:10.127Z,25.36
2018-05-08T16:55:35.942Z,25.40
2018-05-08T16:58:01.751Z,25.29
2018-05-08T17:00:27.548Z,25.23
2018-05-08T17:02:53.339Z,25.21
2018-05-08T17:05:19.139Z,25.15
2018-05-08T17:07:44.913Z,25.12
2018-05-08T17:10:10.701Z,25.12
2018-05-08T17:12:36.510Z,25.09
2018-05-08T17:15:02.464Z,25.08
2018-05-08T17:17:28.272Z,25.13
2018-05-08T17:19:54.073Z,25.16
2018-05-08T17:22:20.078Z,25.11
2018-05-08T17:24:45.865Z,25.01
2018-05-08T17:27:11.664Z,24.97
2018-05-08T17:29:37.449Z,24.96
2018-05-08T17:32:03.286Z,24.95
2018-05-08T17:34:29.103Z,24.81
2018-05-08T17:36:54.997Z,24.72
2018-05-08T17:39:20.773Z,24.66
2018-05-08T17:41:46.584Z,24.54
2018-05-08T17:44:12.404Z,24.51
2018-05-08T17:46:38.205Z,24.53
2018-05-08T17:49:04.025Z,24.46
2018-05-08T17:51:29.830Z,24.42
2018-05-08T17:53:55.626Z,24.37
2018-05-08T17:56:21.425Z,24.33
2018-05-08T17:58:47.211Z,24.35
2018-05-08T18:01:13.010Z,24.25
2018-05-08T18:03:38.812Z,24.23
2018-05-08T18:06:04.618Z,24.16
2018-05-08T18:08:30.519Z,24.14
2018-05-08T18:10:56.335Z,24.07
2018-05-08T18:13:22.129Z,24.01
2018-05-08T18:15:48.465Z,23.91
2018-05-08T18:18:14.268Z,23.90
2018-05-08T18:20:40.236Z,23.88
2018-05-08T18:23:06.072Z,23.83
2018-05-08T18:25:31.890Z,23.78
2018-05-08T18:27:57.685Z,23.75
2018-05-08T18:30:23.494Z,23.67
2018-05-08T18:32:49.490Z,23.66
2018-05-08T18:35:15.313Z,23.55
2018-05-08T18:37:41.305Z,23.48
2018-05-08T18:40:07.110Z,23.42
2018-05-08T18:42:33.254Z,23.26
2018-05-08T18:44:59.230Z,23.23
2018-05-08T18:47:25.025Z,23.21
2018-05-08T18:49:51.122Z,23.21
2018-05-08T18:52:16.939Z,23.14
2018-05-08T18:54:42.733Z,23.04
2018-05-08T18:57:08.606Z,23.04
2018-05-08T18:59:34.447Z,23.05
2018-05-08T19:02:00.239Z,22.89
2018-05-08T19:04:26.896Z,22.83
2018-05-08T19:06:52.770Z,22.76
2018-05-08T19:09:18.527Z,22.74
2018-05-08T19:11:44.348Z,22.66
2018-05-08T19:14:10.224Z,22.62
2018-05-08T19:16:36.042Z,22.61
2018-05-08T19:19:07.952Z,22.42
2018-05-08T19:21:34.202Z,22.34
2018-05-08T19:24:06.272Z,22.37
2018-05-08T19:26:32.242Z,22.15
2018-05-08T19:29:04.401Z,22.06
2018-05-08T19:31:30.287Z,22.01
2018-05-08T19:33:56.124Z,21.94
2018-05-08T19:36:27.922Z,21.86
2018-05-08T19:38:53.726Z,21.78
2018-05-08T19:41:19.541Z,21.75
2018-05-08T19:43:45.349Z,21.72
2018-05-08T19:46:11.163Z,21.69
2018-05-08T19:48:36.964Z,21.64
2018-05-08T19:51:02.785Z,21.57
2018-05-08T19:53:28.565Z,21.52
2018-05-08T19:55:54.721Z,21.44
2018-05-08T19:58:20.582Z,21.44
2018-05-08T20:00:46.754Z,21.39
2018-05-08T20:03:12.565Z,21.37
2018-05-08T20:05:38.369Z,21.28
2018-05-08T20:08:04.165Z,21.33
2018-05-08T20:10:30.028Z,21.24
2018-05-08T20:12:55.866Z,21.15
2018-05-08T20:15:21.654Z,21.09
2018-05-08T20:17:47.476Z,21.00
2018-05-08T20:20:13.282Z,21.03
2018-05-08T20:22:39.073Z,20.98
2018-05-08T20:25:04.888Z,20.94
2018-05-08T20:27:30.942Z,20.96
2018-05-08T20:29:56.772Z,20.93
2018-05-08T20:32:22.722Z,20.93
2018-05-08T20:34:48.524Z,20.82
2018-05-08T20:37:14.575Z,20.69
2018-05-08T20:39:40.765Z,20.57
2018-05-08T20:42:06.710Z,20.45
2018-05-08T20:44:32.564Z,20.35
2018-05-08T20:46:58.707Z,20.39
2018-05-08T20:49:24.550Z,20.27
2018-05-08T20:51:50.814Z,20.12
2018-05-08T20:54:16.964Z,19.96
2018-05-08T20:56:42.822Z,19.91
2018-05-08T20:59:08.625Z,19.75
2018-05-08T21:01:34.417Z,19.71
2018-05-08T21:04:00.214Z,19.69
2018-05-08T21:06:26.007Z,19.62
2018-05-08T21:08:52.096Z,19.59
2018-05-08T21:11:17.892Z,19.53
2018-05-08T21:13:43.857Z,19.52
2018-05-08T21:16:10.348Z,19.55
2018-05-08T21:18:36.142Z,19.49
2018-05-08T21:21:02.207Z,19.44
2018-05-08T21:23:28.007Z,19.37
2018-05-08T21:25:53.806Z,19.35
2018-05-08T21:28:26.109Z,19.21
2018-05-08T21:30:58.129Z,19.16
2018-05-08T21:33:23.909Z,19.06
2018-05-08T21:35:49.715Z,19.08
2018-05-08T21:38:15.771Z,18.98
2018-05-08T21:40:41.561Z,19.05
2018-05-08T21:43:07.370Z,18.94
2018-05-08T21:45:33.452Z,18.96
2018-05-08T21:47:59.260Z,18.87
2018-05-08T21:50:25.063Z,18.84
2018-05-08T21:52:50.877Z,18.78
2018-05-08T21:55:16.734Z,18.76
2018-05-08T21:57:42.522Z,18.85
2018-05-08T22:00:11.231Z,18.73
2018-05-08T22:02:37.013Z,18.74
2018-05-08T22:05:02.840Z,18.73
2018-05-08T22:07:28.661Z,18.58
2018-05-08T22:09:54.453Z,18.51
2018-05-08T22:12:20.253Z,18.41
2018-05-08T22:14:46.039Z,18.37
2018-05-08T22:17:11.834Z,18.34
2018-05-08T22:19:37.656Z,18.31
2018-05-08T22:22:03.445Z,18.24
2018-05-08T22:24:29.241Z,18.22
2018-05-08T22:26:55.033Z,18.23
2018-05-08T22:29:20.820Z,18.19
2018-05-08T22:31:46.618Z,18.21
2018-05-08T22:34:12.436Z,18.15
2018-05-08T22:36:38.227Z,18.19
2018-05-08T22:39:04.036Z,18.11
2018-05-08T22:41:29.845Z,18.10
2018-05-08T22:43:55.632Z,17.99
2018-05-08T22:46:21.425Z,18.08
2018-05-08T22:48:47.233Z,17.99
2018-05-08T22:51:13.025Z,18.00
2018-05-08T22:53:38.796Z,18.08
2018-05-08T22:56:04.571Z,18.05
2018-05-08T22:58:30.367Z,18.00
2018-05-08T23:00:56.165Z,18.08
2018-05-08T23:03:21.950Z,18.09
2018-05-08T23:05:47.770Z,18.10
2018-05-08T23:08:13.537Z,18.19
2018-05-08T23:10:39.321Z,18.02
2018-05-08T23:13:05.338Z,18.10
2018-05-08T23:15:31.121Z,18.11
2018-05-08T23:17:56.923Z,18.04
2018-05-08T23:20:22.718Z,17.97
2018-05-08T23:22:48.510Z,17.87
2018-05-08T23:25:14.298Z,17.89
2018-05-08T23:27:40.126Z,17.96
2018-05-08T23:30:05.901Z,17.86
2018-05-08T23:32:31.705Z,17.86
2018-05-08T23:34:57.534Z,17.93
2018-05-08T23:37:23.331Z,17.88
2018-05-08T23:39:49.116Z,17.85
2018-05-08T23:42:14.909Z,17.84
2018-05-08T23:44:40.701Z,17.83
2018-05-08T23:47:06.533Z,17.86
2018-05-08T23:49:32.338Z,17.82
2018-05-08T23:51:58.117Z,17.71
2018-05-08T23:54:23.929Z,17.75
2018-05-08T23:56:49.709Z,17.72
2018-05-08T23:59:15.485Z,17.68
